| time (UTC) | temp F | wind direction | speed MPH | gust MPH | rain 1hr in | rain 24hr in | rain mn in | humidity % | barometer mb |
| 20260510131556 | 70 | 312 | 1.0 | 2.0 | 0.00 | 0.00 | 0.00 | ||
| 20260510130907 | 69 | 194 | 0.0 | 0.0 | 0.00 | 0.00 | 0.00 | ||
| 20260510130554 | 69 | 194 | 0.0 | 0.0 | 0.00 | 0.00 | 0.00 | ||
| 20260510130316 | 70 | 307 | 3.0 | 2.0 | 0.00 | 0.00 | 0.00 | ||
| 20260510130055 | 70 | 307 | 3.0 | 2.0 | 0.00 | 0.00 | 0.00 | ||
| 20260510125845 | 69 | 349 | 3.0 | 4.0 | 0.00 | 0.00 | 0.00 | ||
| 20260510125551 | 69 | 349 | 3.0 | 4.0 | 0.00 | 0.00 | 0.00 | ||
| 20260510125330 | 69 | 0 | 1.0 | 1.0 | 0.00 | 0.00 | 0.00 | ||
| 20260510125052 | 69 | 0 | 1.0 | 1.0 | 0.00 | 0.00 | 0.00 | ||
| 20260510124738 | 70 | 322 | 0.0 | 0.0 | 0.00 | 0.00 | 0.00 | ||
| 20260510124549 | 70 | 322 | 0.0 | 0.0 | 0.00 | 0.00 | 0.00 | ||
| 20260510123354 | 68 | 322 | 2.0 | 2.0 | 0.00 | 0.00 | 0.00 | ||
| 20260510123050 | 68 | 322 | 2.0 | 2.0 | 0.00 | 0.00 | 0.00 | ||
| 20260510122354 | 69 | 11 | 0.0 | 0.0 | 0.00 | 0.00 | 0.00 | ||
| 20260510122232 | 68 | 323 | 1.0 | 2.0 | 0.00 | 0.00 | 0.00 | ||
| 20260510122050 | 69 | 11 | 0.0 | 0.0 | 0.00 | 0.00 | 0.00 | ||
| 20260510121548 | 68 | 323 | 1.0 | 2.0 | 0.00 | 0.00 | 0.00 | ||
| 20260510121050 | 68 | 347 | 2.0 | 1.0 | 0.00 | 0.00 | 0.00 | ||
| 20260510120547 | 68 | 347 | 2.0 | 1.0 | 0.00 | 0.00 | 0.00 | ||
| 20260510120459 | 67 | 249 | 0.0 | 0.0 | 0.00 | 0.00 | 0.00 | ||
| 20260510120049 | 67 | 249 | 0.0 | 0.0 | 0.00 | 0.00 | 0.00 | ||
| 20260510115043 | 67 | 263 | 1.0 | 0.0 | 0.00 | 0.00 | 0.00 | ||
| 20260510113501 | 68 | 335 | 0.0 | 0.0 | 0.00 | 0.00 | 0.00 | ||
| 20260510113037 | 66 | 335 | 0.0 | 0.0 | 0.00 | 0.00 | 0.00 | ||
| 20260510112533 | 66 | 335 | 0.0 | 0.0 | 0.00 | 0.00 | 0.00 | ||
| 20260510112034 | 66 | 335 | 0.0 | 0.0 | 0.00 | 0.00 | 0.00 | ||
| 20260510111825 | 66 | 335 | 0.0 | 0.0 | 0.00 | 0.00 | 0.00 | ||
| 20260510111531 | 66 | 335 | 0.0 | 0.0 | 0.00 | 0.00 | 0.00 | ||
| 20260510111459 | 66 | 335 | 0.0 | 0.0 | 0.00 | 0.00 | 0.00 | ||
| 20260510111154 | 66 | 335 | 0.0 | 0.0 | 0.00 | 0.00 | 0.00 | ||
| 20260510111032 | 66 | 335 | 0.0 | 0.0 | 0.00 | 0.00 | 0.00 | ||
| 20260510110531 | 66 | 335 | 0.0 | 0.0 | 0.00 | 0.00 | 0.00 | ||
| 20260510110410 | 66 | 346 | 0.0 | 0.0 | 0.00 | 0.00 | 0.00 | ||
| 20260510110032 | 66 | 345 | 0.0 | 1.0 | 0.00 | 0.00 | 0.00 | ||
| 20260510105528 | 66 | 346 | 0.0 | 0.0 | 0.00 | 0.00 | 0.00 | ||
| 20260510105029 | 66 | 346 | 0.0 | 0.0 | 0.00 | 0.00 | 0.00 | ||
| 20260510104948 | 66 | 346 | 0.0 | 0.0 | 0.00 | 0.00 | 0.00 | ||
| 20260510104526 | 66 | 346 | 0.0 | 0.0 | 0.00 | 0.00 | 0.00 | ||
| 20260510103813 | 67 | 342 | 0.0 | 0.0 | 0.00 | 0.00 | 0.00 | ||
| 20260510103522 | 66 | 342 | 0.0 | 0.0 | 0.00 | 0.00 | 0.00 | ||
| 20260510102522 | 67 | 342 | 0.0 | 0.0 | 0.00 | 0.00 | 0.00 | ||
| 20260510102023 | 66 | 342 | 0.0 | 0.0 | 0.00 | 0.00 | 0.00 | ||
| 20260510100521 | 67 | 342 | 0.0 | 0.0 | 0.00 | 0.00 | 0.00 | ||
| 20260510095858 | 66 | 343 | 0.0 | 0.0 | 0.00 | 0.00 | 0.00 | ||
| 20260510095518 | 66 | 343 | 0.0 | 0.0 | 0.00 | 0.00 | 0.00 | ||
| 20260510095306 | 67 | 343 | 0.0 | 0.0 | 0.00 | 0.00 | 0.00 | ||
| 20260510095113 | 67 | 343 | 0.0 | 0.0 | 0.00 | 0.00 | 0.00 | ||
| 20260510095019 | 67 | 343 | 0.0 | 0.0 | 0.00 | 0.00 | 0.00 | ||
| 20260510094517 | 67 | 343 | 0.0 | 0.0 | 0.00 | 0.00 | 0.00 | ||
| 20260510094447 | 66 | 343 | 0.0 | 0.0 | 0.00 | 0.00 | 0.00 | ||
| 20260510094018 | 66 | 343 | 0.0 | 0.0 | 0.00 | 0.00 | 0.00 | ||
| 20260510093520 | 67 | 343 | 0.0 | 0.0 | 0.00 | 0.00 | 0.00 | ||
| 20260510093516 | 66 | 343 | 0.0 | 0.0 | 0.00 | 0.00 | 0.00 | ||
| 20260510093017 | 67 | 343 | 0.0 | 0.0 | 0.00 | 0.00 | 0.00 | ||
| 20260510092515 | 66 | 343 | 0.0 | 0.0 | 0.00 | 0.00 | 0.00 | ||
| 20260510092015 | 66 | 343 | 0.0 | 0.0 | 0.00 | 0.00 | 0.00 | ||
| 20260510091549 | 67 | 343 | 0.0 | 0.0 | 0.00 | 0.00 | 0.00 | ||
| 20260510091513 | 67 | 343 | 0.0 | 0.0 | 0.00 | 0.00 | 0.00 | ||
| 20260510091111 | 67 | 343 | 0.0 | 0.0 | 0.00 | 0.00 | 0.00 | ||
| 20260510091015 | 67 | 343 | 0.0 | 0.0 | 0.00 | 0.00 | 0.00 | ||
| 20260510090510 | 67 | 343 | 0.0 | 0.0 | 0.00 | 0.00 | 0.00 | ||
| 20260510090439 | 67 | 343 | 0.0 | 0.0 | 0.00 | 0.00 | 0.00 | ||
| 20260510090011 | 67 | 343 | 0.0 | 0.0 | 0.00 | 0.00 | 0.00 | ||
| 20260510085509 | 66 | 343 | 0.0 | 0.0 | 0.00 | 0.00 | 0.00 | ||
| 20260510085010 | 67 | 343 | 0.0 | 0.0 | 0.00 | 0.00 | 0.00 | ||
| 20260510084508 | 67 | 343 | 0.0 | 0.0 | 0.00 | 0.00 | 0.00 | ||
| 20260510084219 | 68 | 343 | 0.0 | 0.0 | 0.00 | 0.00 | 0.00 | ||
| 20260510084009 | 67 | 343 | 0.0 | 0.0 | 0.00 | 0.00 | 0.00 | ||
| 20260510083507 | 68 | 343 | 0.0 | 0.0 | 0.00 | 0.00 | 0.00 | ||
| 20260510083335 | 68 | 343 | 0.0 | 0.0 | 0.00 | 0.00 | 0.00 | ||
| 20260510083008 | 68 | 343 | 0.0 | 0.0 | 0.00 | 0.00 | 0.00 | ||
| 20260510082506 | 68 | 343 | 0.0 | 0.0 | 0.00 | 0.00 | 0.00 | ||
| 20260510082007 | 67 | 343 | 0.0 | 0.0 | 0.00 | 0.00 | 0.00 | ||
| 20260510081754 | 68 | 343 | 0.0 | 0.0 | 0.00 | 0.00 | 0.00 | ||
| 20260510081506 | 68 | 343 | 0.0 | 0.0 | 0.00 | 0.00 | 0.00 | ||
| 20260510081007 | 66 | 343 | 0.0 | 0.0 | 0.00 | 0.00 | 0.00 | ||
| 20260510080503 | 67 | 326 | 0.0 | 0.0 | 0.00 | 0.00 | 0.00 | ||
| 20260510080004 | 67 | 326 | 0.0 | 0.0 | 0.00 | 0.00 | 0.00 | ||
| 20260510075502 | 68 | 346 | 0.0 | 0.0 | 0.00 | 0.00 | 0.00 | ||
| 20260510075003 | 66 | 346 | 1.0 | 0.0 | 0.00 | 0.00 | 0.00 | ||
| 20260510074501 | 67 | 342 | 1.0 | 0.0 | 0.00 | 0.00 | 0.00 | ||
| 20260510074002 | 68 | 340 | 0.0 | 0.0 | 0.00 | 0.00 | 0.00 | ||
| 20260510073002 | 68 | 340 | 0.0 | 0.0 | 0.00 | 0.00 | 0.00 | ||
| 20260510072917 | 68 | 347 | 0.0 | 0.0 | 0.00 | 0.00 | 0.00 | ||
| 20260510072500 | 68 | 347 | 0.0 | 0.0 | 0.00 | 0.00 | 0.00 | ||
| 20260510071000 | 68 | 347 | 1.0 | 1.0 | 0.00 | 0.00 | 0.00 | ||
| 20260510070458 | 68 | 346 | 1.0 | 1.0 | 0.00 | 0.00 | 0.00 | ||
| 20260510070234 | 68 | 350 | 1.0 | 1.0 | 0.00 | 0.00 | 0.00 | ||
| 20260510070000 | 68 | 350 | 1.0 | 1.0 | 0.00 | 0.00 | 0.00 | ||
| 20260510065458 | 68 | 349 | 1.0 | 0.0 | 0.00 | 0.00 | 0.00 | ||
| 20260510065138 | 68 | 350 | 0.0 | 0.0 | 0.00 | 0.00 | 0.00 | ||
| 20260510064959 | 68 | 350 | 0.0 | 0.0 | 0.00 | 0.00 | 0.00 | ||
| 20260510064730 | 68 | 354 | 0.0 | 2.0 | 0.00 | 0.00 | 0.00 | ||
| 20260510064457 | 68 | 354 | 0.0 | 2.0 | 0.00 | 0.00 | 0.00 | ||
| 20260510064254 | 68 | 240 | 0.0 | 0.0 | 0.00 | 0.00 | 0.00 | ||
| 20260510063959 | 68 | 240 | 0.0 | 0.0 | 0.00 | 0.00 | 0.00 | ||
| 20260510063804 | 68 | 240 | 0.0 | 0.0 | 0.00 | 0.00 | 0.00 | ||
| 20260510063457 | 68 | 240 | 0.0 | 0.0 | 0.00 | 0.00 | 0.00 | ||
| 20260510062958 | 68 | 240 | 0.0 | 0.0 | 0.00 | 0.00 | 0.00 | ||
| 20260510062714 | 67 | 240 | 0.0 | 0.0 | 0.00 | 0.00 | 0.00 | ||
| 20260510062456 | 67 | 240 | 0.0 | 0.0 | 0.00 | 0.00 | 0.00 | ||
| 20260510061957 | 67 | 240 | 0.0 | 0.0 | 0.00 | 0.00 | 0.00 | ||
| 20260510061455 | 67 | 240 | 0.0 | 0.0 | 0.00 | 0.00 | 0.00 | ||
| 20260510060956 | 68 | 240 | 0.0 | 0.0 | 0.00 | 0.00 | 0.00 | ||
| 20260510060455 | 67 | 248 | 0.0 | 0.0 | 0.00 | 0.00 | 0.00 | ||
| 20260510060324 | 67 | 248 | 0.0 | 1.0 | 0.00 | 0.00 | 0.00 | ||
| 20260510055956 | 67 | 248 | 0.0 | 1.0 | 0.00 | 0.00 | 0.00 | ||
| 20260510055454 | 68 | 248 | 0.0 | 0.0 | 0.00 | 0.00 | 0.00 | ||
| 20260510055344 | 68 | 276 | 0.0 | 0.0 | 0.00 | 0.00 | 0.00 | ||
| 20260510054955 | 68 | 276 | 0.0 | 0.0 | 0.00 | 0.00 | 0.00 | ||
| 20260510054453 | 67 | 276 | 0.0 | 0.0 | 0.00 | 0.00 | 0.00 | ||
| 20260510053954 | 68 | 276 | 0.0 | 0.0 | 0.00 | 0.00 | 0.00 | ||
| 20260510053805 | 67 | 276 | 0.0 | 0.0 | 0.00 | 0.00 | 0.00 | ||
| 20260510053453 | 67 | 276 | 0.0 | 0.0 | 0.00 | 0.00 | 0.00 | ||
| 20260510053422 | 68 | 276 | 0.0 | 0.0 | 0.00 | 0.00 | 0.00 | ||
| 20260510052953 | 68 | 276 | 0.0 | 0.0 | 0.00 | 0.00 | 0.00 | ||
| 20260510052836 | 68 | 276 | 0.0 | 0.0 | 0.00 | 0.00 | 0.00 | ||
| 20260510052455 | 67 | 276 | 0.0 | 0.0 | 0.00 | 0.00 | 0.00 | ||
| 20260510052451 | 68 | 276 | 0.0 | 0.0 | 0.00 | 0.00 | 0.00 | ||
| 20260510051952 | 67 | 276 | 0.0 | 0.0 | 0.00 | 0.00 | 0.00 | ||
| 20260510051451 | 68 | 276 | 0.0 | 0.0 | 0.00 | 0.00 | 0.00 | ||
| 20260510050952 | 67 | 276 | 0.0 | 0.0 | 0.00 | 0.00 | 0.00 | ||
| 20260510050851 | 67 | 311 | 0.0 | 0.0 | 0.00 | 0.00 | 0.00 | ||
| 20260510050450 | 67 | 311 | 0.0 | 0.0 | 0.00 | 0.00 | 0.00 | ||
| 20260510050338 | 68 | 311 | 0.0 | 0.0 | 0.00 | 0.00 | 0.00 | ||
| 20260510045952 | 68 | 311 | 0.0 | 0.0 | 0.00 | 0.00 | 0.00 | ||
| 20260510045448 | 67 | 311 | 0.0 | 0.0 | 0.00 | 0.00 | 0.00 | ||
| 20260510045054 | 67 | 311 | 0.0 | 0.0 | 0.00 | 0.00 | 0.00 | ||
| 20260510044949 | 68 | 311 | 0.0 | 0.0 | 0.00 | 0.00 | 0.00 | ||
| 20260510044446 | 67 | 311 | 0.0 | 0.0 | 0.00 | 0.00 | 0.00 | ||
| 20260510043703 | 68 | 311 | 0.0 | 0.0 | 0.00 | 0.00 | 0.00 | ||
| 20260510043444 | 68 | 311 | 0.0 | 0.0 | 0.00 | 0.00 | 0.00 | ||
| 20260510042945 | 67 | 311 | 0.0 | 0.0 | 0.00 | 0.00 | 0.00 | ||
| 20260510042443 | 66 | 311 | 0.0 | 0.0 | 0.00 | 0.00 | 0.00 | ||
| 20260510041945 | 67 | 311 | 0.0 | 0.0 | 0.00 | 0.00 | 0.00 | ||
| 20260510041441 | 67 | 311 | 0.0 | 0.0 | 0.00 | 0.00 | 0.00 | ||
| 20260510041105 | 68 | 311 | 0.0 | 0.0 | 0.00 | 0.00 | 0.00 | ||
| 20260510040942 | 67 | 311 | 0.0 | 0.0 | 0.00 | 0.00 | 0.00 | ||
| 20260510040440 | 68 | 311 | 0.0 | 0.0 | 0.00 | 0.00 | 0.00 | ||
| 20260510035941 | 68 | 311 | 0.0 | 0.0 | 0.00 | 0.00 | 0.00 | ||
| 20260510035651 | 68 | 311 | 0.0 | 0.0 | 0.00 | 0.00 | 0.00 | ||
| 20260510035440 | 68 | 311 | 0.0 | 0.0 | 0.00 | 0.00 | 0.00 | ||
| 20260510034508 | 68 | 311 | 0.0 | 0.0 | 0.00 | 0.00 | 0.00 | ||
| 20260510034437 | 68 | 311 | 0.0 | 0.0 | 0.00 | 0.00 | 0.00 | ||
| 20260510033938 | 67 | 311 | 0.0 | 0.0 | 0.00 | 0.00 | 0.00 | ||
| 20260510033436 | 68 | 311 | 0.0 | 0.0 | 0.00 | 0.00 | 0.00 | ||
| 20260510032938 | 68 | 311 | 0.0 | 0.0 | 0.00 | 0.00 | 0.00 | ||
| 20260510032851 | 69 | 311 | 0.0 | 0.0 | 0.00 | 0.00 | 0.00 | ||
| 20260510032436 | 69 | 311 | 0.0 | 0.0 | 0.00 | 0.00 | 0.00 | ||
| 20260510032038 | 68 | 311 | 0.0 | 0.0 | 0.00 | 0.00 | 0.00 | ||
| 20260510031937 | 68 | 311 | 0.0 | 0.0 | 0.00 | 0.00 | 0.00 | ||
| 20260510031434 | 68 | 311 | 0.0 | 0.0 | 0.00 | 0.00 | 0.00 | ||
| 20260510030936 | 69 | 311 | 0.0 | 0.0 | 0.00 | 0.00 | 0.00 | ||
| 20260510030433 | 69 | 311 | 0.0 | 0.0 | 0.00 | 0.00 | 0.00 | ||
| 20260510030034 | 69 | 311 | 0.0 | 0.0 | 0.00 | 0.00 | 0.00 | ||
| 20260510025934 | 69 | 311 | 0.0 | 0.0 | 0.00 | 0.00 | 0.00 | ||
| 20260510025535 | 69 | 311 | 0.0 | 0.0 | 0.00 | 0.00 | 0.00 | ||
| 20260510025432 | 69 | 311 | 0.0 | 0.0 | 0.00 | 0.00 | 0.00 | ||
| 20260510023957 | 69 | 311 | 0.0 | 0.0 | 0.00 | 0.00 | 0.00 | ||
| 20260510023933 | 69 | 311 | 0.0 | 0.0 | 0.00 | 0.00 | 0.00 | ||
| 20260510023431 | 69 | 311 | 0.0 | 0.0 | 0.00 | 0.00 | 0.00 | ||
| 20260510023117 | 70 | 311 | 0.0 | 0.0 | 0.00 | 0.00 | 0.00 | ||
| 20260510022430 | 69 | 311 | 0.0 | 0.0 | 0.00 | 0.00 | 0.00 | ||
| 20260510021931 | 70 | 311 | 0.0 | 0.0 | 0.00 | 0.00 | 0.00 | ||
| 20260510021429 | 70 | 311 | 0.0 | 0.0 | 0.00 | 0.00 | 0.00 | ||
| 20260510020930 | 70 | 311 | 0.0 | 0.0 | 0.00 | 0.00 | 0.00 | ||
| 20260510020133 | 70 | 311 | 0.0 | 0.0 | 0.00 | 0.00 | 0.00 | ||
| 20260510015929 | 70 | 311 | 0.0 | 0.0 | 0.00 | 0.00 | 0.00 | ||
| 20260510015428 | 70 | 311 | 0.0 | 0.0 | 0.00 | 0.00 | 0.00 | ||
| 20260510014929 | 70 | 311 | 0.0 | 0.0 | 0.00 | 0.00 | 0.00 | ||
| 20260510014427 | 70 | 311 | 0.0 | 0.0 | 0.00 | 0.00 | 0.00 | ||
| 20260510013836 | 71 | 311 | 0.0 | 0.0 | 0.00 | 0.00 | 0.00 | ||
| 20260510013426 | 70 | 311 | 0.0 | 0.0 | 0.00 | 0.00 | 0.00 | ||
| 20260510012425 | 71 | 311 | 0.0 | 0.0 | 0.00 | 0.00 | 0.00 | ||
| 20260510011927 | 70 | 311 | 0.0 | 0.0 | 0.00 | 0.00 | 0.00 | ||
| 20260510011425 | 71 | 311 | 0.0 | 0.0 | 0.00 | 0.00 | 0.00 | ||
| 20260510010926 | 70 | 311 | 0.0 | 0.0 | 0.00 | 0.00 | 0.00 | ||
| 20260510010615 | 71 | 311 | 0.0 | 0.0 | 0.00 | 0.00 | 0.00 | ||
| 20260510010424 | 71 | 311 | 0.0 | 0.0 | 0.00 | 0.00 | 0.00 | ||
| 20260510005925 | 71 | 311 | 0.0 | 0.0 | 0.00 | 0.00 | 0.00 | ||
| 20260510005424 | 71 | 311 | 0.0 | 0.0 | 0.00 | 0.00 | 0.00 | ||
| 20260510005300 | 72 | 311 | 0.0 | 0.0 | 0.00 | 0.00 | 0.00 | ||
| 20260510004925 | 71 | 311 | 0.0 | 0.0 | 0.00 | 0.00 | 0.00 | ||
| 20260510004423 | 72 | 311 | 0.0 | 0.0 | 0.00 | 0.00 | 0.00 | ||
| 20260510003924 | 72 | 311 | 0.0 | 0.0 | 0.00 | 0.00 | 0.00 | ||
| 20260510003423 | 72 | 311 | 0.0 | 0.0 | 0.00 | 0.00 | 0.00 | ||
| 20260510002924 | 72 | 311 | 0.0 | 0.0 | 0.00 | 0.00 | 0.00 | ||
| 20260510002422 | 73 | 311 | 0.0 | 0.0 | 0.00 | 0.00 | 0.00 | ||
| 20260510001922 | 73 | 311 | 0.0 | 0.0 | 0.00 | 0.00 | 0.00 | ||
| 20260510001420 | 73 | 311 | 0.0 | 0.0 | 0.00 | 0.00 | 0.00 | ||
| 20260510000921 | 73 | 311 | 0.0 | 0.0 | 0.00 | 0.00 | 0.00 | ||
| 20260510000420 | 73 | 311 | 0.0 | 0.0 | 0.00 | 0.00 | 0.00 | ||
| 20260509235419 | 73 | 311 | 0.0 | 0.0 | 0.00 | 0.00 | 0.00 | ||
| 20260509234920 | 74 | 311 | 0.0 | 0.0 | 0.00 | 0.00 | 0.00 | ||
| 20260509234418 | 74 | 311 | 0.0 | 0.0 | 0.00 | 0.00 | 0.00 | ||
| 20260509233920 | 74 | 311 | 0.0 | 0.0 | 0.00 | 0.00 | 0.00 | ||
| 20260509232919 | 75 | 311 | 0.0 | 0.0 | 0.00 | 0.00 | 0.00 | ||
| 20260509232417 | 75 | 311 | 0.0 | 0.0 | 0.00 | 0.00 | 0.00 | ||
| 20260509231918 | 76 | 311 | 0.0 | 0.0 | 0.00 | 0.00 | 0.00 | ||
| 20260509230918 | 76 | 311 | 0.0 | 0.0 | 0.00 | 0.00 | 0.00 | ||
| 20260509230416 | 76 | 311 | 0.0 | 0.0 | 0.00 | 0.00 | 0.00 | ||
| 20260509225917 | 76 | 345 | 0.0 | 0.0 | 0.00 | 0.00 | 0.00 | ||
| 20260509225415 | 76 | 18 | 0.0 | 0.0 | 0.00 | 0.00 | 0.00 | ||
| 20260509224916 | 76 | 13 | 0.0 | 0.0 | 0.00 | 0.00 | 0.00 | ||
| 20260509224415 | 76 | 13 | 2.0 | 0.0 | 0.00 | 0.00 | 0.00 | ||
| 20260509223916 | 76 | 332 | 1.0 | 2.0 | 0.00 | 0.00 | 0.00 | ||
| 20260509223414 | 77 | 24 | 1.0 | 0.0 | 0.00 | 0.00 | 0.00 | ||
| 20260509222915 | 76 | 347 | 2.0 | 0.0 | 0.00 | 0.00 | 0.00 | ||
| 20260509222413 | 77 | 356 | 2.0 | 0.0 | 0.00 | 0.00 | 0.00 | ||
| 20260509221914 | 77 | 352 | 1.0 | 2.0 | 0.00 | 0.00 | 0.00 | ||
| 20260509221413 | 78 | 353 | 0.0 | 0.0 | 0.00 | 0.00 | 0.00 | ||
| 20260509220914 | 77 | 6 | 0.0 | 2.0 | 0.00 | 0.00 | 0.00 | ||
| 20260509220412 | 77 | 228 | 0.0 | 0.0 | 0.00 | 0.00 | 0.00 | ||
| 20260509215913 | 78 | 316 | 2.0 | 0.0 | 0.00 | 0.00 | 0.00 | ||
| 20260509215412 | 78 | 301 | 0.0 | 2.0 | 0.00 | 0.00 | 0.00 | ||
| 20260509214913 | 77 | 273 | 2.0 | 0.0 | 0.00 | 0.00 | 0.00 | ||
| 20260509214411 | 77 | 305 | 0.0 | 0.0 | 0.00 | 0.00 | 0.00 | ||
| 20260509213410 | 78 | 217 | 0.0 | 1.0 | 0.00 | 0.00 | 0.00 | ||
| 20260509212911 | 78 | 255 | 2.0 | 1.0 | 0.00 | 0.00 | 0.00 | ||
| 20260509212409 | 78 | 274 | 1.0 | 2.0 | 0.00 | 0.00 | 0.00 | ||
| 20260509211911 | 78 | 264 | 3.0 | 2.0 | 0.00 | 0.00 | 0.00 | ||
| 20260509211409 | 78 | 332 | 2.0 | 1.0 | 0.00 | 0.00 | 0.00 | ||
| 20260509210910 | 77 | 203 | 0.0 | 0.0 | 0.00 | 0.00 | 0.00 | ||
| 20260509205909 | 77 | 263 | 0.0 | 0.0 | 0.00 | 0.00 | 0.00 | ||
| 20260509205408 | 77 | 263 | 2.0 | 0.0 | 0.00 | 0.00 | 0.00 | ||
| 20260509204909 | 77 | 315 | 2.0 | 1.0 | 0.00 | 0.00 | 0.00 | ||
| 20260509204407 | 77 | 249 | 2.0 | 1.0 | 0.00 | 0.00 | 0.00 | ||
| 20260509203908 | 78 | 323 | 2.0 | 1.0 | 0.00 | 0.00 | 0.00 | ||
| 20260509203406 | 77 | 307 | 2.0 | 0.0 | 0.00 | 0.00 | 0.00 | ||
| 20260509202908 | 78 | 319 | 2.0 | 4.0 | 0.00 | 0.00 | 0.00 | ||
| 20260509202406 | 77 | 300 | 2.0 | 1.0 | 0.00 | 0.00 | 0.00 | ||
| 20260509201907 | 77 | 323 | 0.0 | 3.0 | 0.00 | 0.00 | 0.00 | ||
| 20260509201405 | 78 | 342 | 4.0 | 0.0 | 0.00 | 0.00 | 0.00 | ||
| 20260509200907 | 78 | 352 | 3.0 | 5.0 | 0.00 | 0.00 | 0.00 | ||
| 20260509200405 | 77 | 347 | 0.0 | 0.0 | 0.00 | 0.00 | 0.00 | ||
| 20260509195906 | 77 | 322 | 2.0 | 0.0 | 0.00 | 0.00 | 0.00 | ||
| 20260509195404 | 78 | 287 | 1.0 | 0.0 | 0.00 | 0.00 | 0.00 | ||
| 20260509194905 | 78 | 264 | 4.0 | 6.0 | 0.00 | 0.00 | 0.00 | ||
| 20260509194404 | 79 | 300 | 1.0 | 3.0 | 0.00 | 0.00 | 0.00 | ||
| 20260509193905 | 78 | 322 | 0.0 | 0.0 | 0.00 | 0.00 | 0.00 | ||
| 20260509193403 | 78 | 359 | 2.0 | 1.0 | 0.00 | 0.00 | 0.00 | ||
| 20260509192904 | 78 | 343 | 2.0 | 3.0 | 0.00 | 0.00 | 0.00 | ||
| 20260509191904 | 78 | 15 | 1.0 | 1.0 | 0.00 | 0.00 | 0.00 | ||
| 20260509191402 | 78 | 335 | 0.0 | 0.0 | 0.00 | 0.00 | 0.00 | ||
| 20260509190903 | 78 | 335 | 0.0 | 3.0 | 0.00 | 0.00 | 0.00 | ||
| 20260509190401 | 78 | 301 | 1.0 | 3.0 | 0.00 | 0.00 | 0.00 | ||
| 20260509185903 | 78 | 248 | 1.0 | 1.0 | 0.00 | 0.00 | 0.00 | ||
| 20260509185401 | 79 | 354 | 2.0 | 2.0 | 0.00 | 0.00 | 0.00 | ||
| 20260509184902 | 78 | 264 | 0.0 | 0.0 | 0.00 | 0.00 | 0.00 | ||
| 20260509183901 | 78 | 314 | 1.0 | 2.0 | 0.00 | 0.00 | 0.00 | ||
| 20260509183400 | 78 | 240 | 1.0 | 3.0 | 0.00 | 0.00 | 0.00 | ||
| 20260509182901 | 79 | 231 | 3.0 | 0.0 | 0.00 | 0.00 | 0.00 | ||
| 20260509182359 | 77 | 256 | 2.0 | 0.0 | 0.00 | 0.00 | 0.00 | ||
| 20260509181859 | 78 | 340 | 1.0 | 0.0 | 0.00 | 0.00 | 0.00 | ||
| 20260509181358 | 78 | 323 | 6.0 | 5.0 | 0.00 | 0.00 | 0.00 | ||
| 20260509180859 | 78 | 316 | 2.0 | 3.0 | 0.00 | 0.00 | 0.00 | ||
| 20260509180357 | 78 | 267 | 2.0 | 2.0 | 0.00 | 0.00 | 0.00 | ||
| 20260509175858 | 78 | 281 | 3.0 | 2.0 | 0.00 | 0.00 | 0.00 | ||
| 20260509175356 | 78 | 352 | 3.0 | 4.0 | 0.00 | 0.00 | 0.00 | ||
| 20260509174858 | 78 | 288 | 4.0 | 4.0 | 0.00 | 0.00 | 0.00 | ||
| 20260509173856 | 79 | 333 | 1.0 | 3.0 | 0.00 | 0.00 | 0.00 | ||
| 20260509173354 | 79 | 4 | 2.0 | 4.0 | 0.00 | 0.00 | 0.00 | ||
| 20260509172856 | 79 | 335 | 3.0 | 2.0 | 0.00 | 0.00 | 0.00 | ||
| 20260509172354 | 78 | 305 | 0.0 | 3.0 | 0.00 | 0.00 | 0.00 | ||
| 20260509171855 | 78 | 51 | 4.0 | 0.0 | 0.00 | 0.00 | 0.00 | ||
| 20260509171353 | 78 | 3 | 1.0 | 4.0 | 0.00 | 0.00 | 0.00 | ||
| 20260509170353 | 78 | 359 | 4.0 | 4.0 | 0.00 | 0.00 | 0.00 | ||
| 20260509165352 | 79 | 221 | 3.0 | 3.0 | 0.00 | 0.00 | 0.00 | ||
| 20260509164854 | 79 | 311 | 2.0 | 2.0 | 0.00 | 0.00 | 0.00 | ||
| 20260509164352 | 80 | 271 | 2.0 | 7.0 | 0.00 | 0.00 | 0.00 | ||
| 20260509163853 | 79 | 250 | 5.0 | 3.0 | 0.00 | 0.00 | 0.00 | ||
| 20260509162852 | 80 | 312 | 3.0 | 4.0 | 0.00 | 0.00 | 0.00 | ||
| 20260509162351 | 80 | 308 | 4.0 | 6.0 | 0.00 | 0.00 | 0.00 | ||
| 20260509161852 | 80 | 217 | 5.0 | 2.0 | 0.00 | 0.00 | 0.00 | ||
| 20260509161350 | 80 | 37 | 3.0 | 3.0 | 0.00 | 0.00 | 0.00 | ||
| 20260509161209 | 79 | 217 | 3.0 | 1.0 | 0.00 | 0.00 | 0.00 | ||
| 20260509160851 | 79 | 66 | 2.0 | 1.0 | 0.00 | 0.00 | 0.00 | ||
| 20260509160350 | 79 | 65 | 1.0 | 3.0 | 0.00 | 0.00 | 0.00 | ||
| 20260509155851 | 79 | 326 | 3.0 | 4.0 | 0.00 | 0.00 | 0.00 | ||
| 20260509155559 | 77 | 288 | 1.0 | 3.0 | 0.00 | 0.00 | 0.00 | ||
| 20260509155349 | 79 | 217 | 3.0 | 1.0 | 0.00 | 0.00 | 0.00 | ||
| 20260509154850 | 78 | 298 | 2.0 | 3.0 | 0.00 | 0.00 | 0.00 | ||
| 20260509154349 | 77 | 288 | 1.0 | 3.0 | 0.00 | 0.00 | 0.00 | ||
| 20260509154319 | 76 | 319 | 0.0 | 0.0 | 0.00 | 0.00 | 0.00 | ||
| 20260509153850 | 76 | 319 | 0.0 | 0.0 | 0.00 | 0.00 | 0.00 | ||
| 20260509153729 | 75 | 316 | 1.0 | 3.0 | 0.00 | 0.00 | 0.00 | ||
| 20260509153350 | 75 | 263 | 0.0 | 2.0 | 0.00 | 0.00 | 0.00 | ||
| 20260509153348 | 75 | 316 | 1.0 | 3.0 | 0.00 | 0.00 | 0.00 | ||
| 20260509152850 | 74 | 269 | 1.0 | 0.0 | 0.00 | 0.00 | 0.00 | ||
| 20260509152348 | 74 | 269 | 1.0 | 0.0 | 0.00 | 0.00 | 0.00 | ||
| 20260509152344 | 75 | 86 | 0.0 | 1.0 | 0.00 | 0.00 | 0.00 | ||
| 20260509151849 | 74 | 318 | 0.0 | 0.0 | 0.00 | 0.00 | 0.00 | ||
| 20260509151347 | 74 | 318 | 0.0 | 0.0 | 0.00 | 0.00 | 0.00 | ||
| 20260509150836 | 74 | 239 | 0.0 | 0.0 | 0.00 | 0.00 | 0.00 | ||
| 20260509150347 | 74 | 239 | 0.0 | 0.0 | 0.00 | 0.00 | 0.00 | ||
| 20260509145848 | 74 | 343 | 0.0 | 0.0 | 0.00 | 0.00 | 0.00 | ||
| 20260509145553 | 74 | 343 | 0.0 | 0.0 | 0.00 | 0.00 | 0.00 | ||
| 20260509145346 | 74 | 343 | 0.0 | 0.0 | 0.00 | 0.00 | 0.00 | ||
| 20260509145316 | 74 | 20 | 1.0 | 0.0 | 0.00 | 0.00 | 0.00 | ||
| 20260509144848 | 74 | 114 | 1.0 | 1.0 | 0.00 | 0.00 | 0.00 | ||
| 20260509144345 | 74 | 114 | 1.0 | 1.0 | 0.00 | 0.00 | 0.00 | ||
| 20260509144139 | 74 | 121 | 5.0 | 4.0 | 0.00 | 0.00 | 0.00 | ||
| 20260509143847 | 74 | 121 | 5.0 | 4.0 | 0.00 | 0.00 | 0.00 | ||
| 20260509143617 | 74 | 308 | 0.0 | 0.0 | 0.00 | 0.00 | 0.00 | ||
| 20260509143345 | 74 | 308 | 0.0 | 0.0 | 0.00 | 0.00 | 0.00 | ||
| 20260509143118 | 73 | 322 | 3.0 | 2.0 | 0.00 | 0.00 | 0.00 | ||
| 20260509142846 | 73 | 322 | 3.0 | 2.0 | 0.00 | 0.00 | 0.00 | ||
| 20260509142626 | 72 | 124 | 3.0 | 3.0 | 0.00 | 0.00 | 0.00 | ||
| 20260509142344 | 72 | 124 | 3.0 | 3.0 | 0.00 | 0.00 | 0.00 | ||
| 20260509142252 | 72 | 121 | 4.0 | 6.0 | 0.00 | 0.00 | 0.00 | ||
| 20260509141846 | 72 | 121 | 4.0 | 6.0 | 0.00 | 0.00 | 0.00 | ||
| 20260509141618 | 71 | 150 | 1.0 | 3.0 | 0.00 | 0.00 | 0.00 | ||
| 20260509141344 | 71 | 150 | 1.0 | 3.0 | 0.00 | 0.00 | 0.00 | ||
| 20260509141137 | 71 | 131 | 4.0 | 3.0 | 0.00 | 0.00 | 0.00 | ||
| 20260509140845 | 71 | 131 | 4.0 | 3.0 | 0.00 | 0.00 | 0.00 | ||
| 20260509140749 | 71 | 125 | 3.0 | 3.0 | 0.00 | 0.00 | 0.00 | ||
| 20260509140343 | 71 | 125 | 3.0 | 3.0 | 0.00 | 0.00 | 0.00 | ||
| 20260509140121 | 71 | 153 | 4.0 | 3.0 | 0.00 | 0.00 | 0.00 | ||
| 20260509135845 | 71 | 153 | 4.0 | 3.0 | 0.00 | 0.00 | 0.00 | ||
| 20260509135553 | 70 | 134 | 5.0 | 4.0 | 0.00 | 0.00 | 0.00 | ||
| 20260509135343 | 70 | 134 | 5.0 | 4.0 | 0.00 | 0.00 | 0.00 | ||
| 20260509135132 | 69 | 135 | 2.0 | 2.0 | 0.00 | 0.00 | 0.00 | ||
| 20260509134844 | 69 | 135 | 2.0 | 2.0 | 0.00 | 0.00 | 0.00 | ||
| 20260509134649 | 69 | 142 | 1.0 | 1.0 | 0.00 | 0.00 | 0.00 | ||
| 20260509134342 | 69 | 142 | 1.0 | 1.0 | 0.00 | 0.00 | 0.00 | ||
| 20260509134101 | 68 | 110 | 1.0 | 1.0 | 0.00 | 0.00 | 0.00 | ||
| 20260509133844 | 68 | 110 | 1.0 | 1.0 | 0.00 | 0.00 | 0.00 | ||
| 20260509133619 | 68 | 107 | 0.0 | 0.0 | 0.00 | 0.00 | 0.00 | ||
| 20260509133342 | 68 | 107 | 0.0 | 0.0 | 0.00 | 0.00 | 0.00 | ||
| 20260509133105 | 68 | 107 | 0.0 | 0.0 | 0.00 | 0.00 | 0.00 | ||
| 20260509132843 | 68 | 107 | 0.0 | 0.0 | 0.00 | 0.00 | 0.00 | ||
| 20260509132714 | 67 | 107 | 0.0 | 0.0 | 0.00 | 0.00 | 0.00 | ||
| 20260509132341 | 67 | 107 | 0.0 | 0.0 | 0.00 | 0.00 | 0.00 |